createdAt,value
2018-06-19T00:00:35.410Z,101047.74
2018-06-19T00:03:05.199Z,101049.67
2018-06-19T00:05:34.147Z,101047.55
2018-06-19T00:08:04.176Z,101041.61
2018-06-19T00:10:36.040Z,101043.80
2018-06-19T00:13:06.050Z,101048.34
2018-06-19T00:15:37.317Z,101042.47
2018-06-19T00:18:06.372Z,101041.03
2018-06-19T00:20:35.644Z,101037.48
2018-06-19T00:23:05.511Z,101034.34
2018-06-19T00:25:34.361Z,101043.72
2018-06-19T00:28:04.678Z,101034.81
2018-06-19T00:30:34.976Z,101045.02
2018-06-19T00:33:03.968Z,101044.16
2018-06-19T00:35:33.782Z,101046.54
2018-06-19T00:38:08.120Z,101045.33
2018-06-19T00:40:48.365Z,101039.14
2018-06-19T00:43:18.359Z,101047.73
2018-06-19T00:45:51.049Z,101043.85
2018-06-19T00:48:23.945Z,101044.63
2018-06-19T00:50:52.988Z,101047.56
2018-06-19T00:53:22.170Z,101045.05
2018-06-19T00:55:54.552Z,101040.90
2018-06-19T00:58:30.524Z,101048.27
2018-06-19T01:01:01.981Z,101049.09
2018-06-19T01:03:33.339Z,101047.31
2018-06-19T01:08:51.041Z,101049.27
2018-06-19T01:11:20.183Z,101051.22
2018-06-19T01:13:49.829Z,101050.92
2018-06-19T01:16:18.903Z,101048.44
2018-06-19T01:18:49.185Z,101046.73
2018-06-19T01:21:19.732Z,101051.54
2018-06-19T01:23:49.197Z,101052.88
2018-06-19T01:26:18.542Z,101053.52
2018-06-19T01:28:47.782Z,101043.41
2018-06-19T01:31:17.375Z,101040.91
2018-06-19T01:33:46.422Z,101047.07
2018-06-19T01:36:16.190Z,101049.03
2018-06-19T01:38:45.765Z,101041.22
2018-06-19T01:41:16.065Z,101035.48
2018-06-19T01:43:45.822Z,101037.74
2018-06-19T01:46:14.406Z,101032.56
2018-06-19T01:48:43.106Z,101033.94
2018-06-19T01:51:11.847Z,101036.66
2018-06-19T01:53:40.621Z,101035.81
2018-06-19T01:56:09.779Z,101033.09
2018-06-19T01:58:38.988Z,101024.52
2018-06-19T02:01:08.744Z,101033.81
2018-06-19T02:03:38.733Z,101033.99
2018-06-19T02:06:08.608Z,101031.53
2018-06-19T02:08:37.516Z,101040.09
2018-06-19T02:11:07.265Z,101038.27
2018-06-19T02:13:36.768Z,101031.59
2018-06-19T02:16:06.616Z,101031.28
2018-06-19T02:18:36.351Z,101028.77
2018-06-19T02:21:05.654Z,101025.44
2018-06-19T02:23:36.465Z,101026.97
2018-06-19T02:26:11.438Z,101026.80
2018-06-19T02:28:40.413Z,101028.72
2018-06-19T02:31:09.336Z,101034.27
2018-06-19T02:33:40.593Z,101038.06
2018-06-19T02:36:07.385Z,101043.87
2018-06-19T02:38:36.912Z,101040.19
2018-06-19T02:41:06.013Z,101040.73
2018-06-19T02:43:35.470Z,101041.19
2018-06-19T02:46:05.141Z,101051.34
2018-06-19T02:48:37.421Z,101052.02
2018-06-19T02:51:20.819Z,101051.30
2018-06-19T02:53:50.098Z,101049.39
2018-06-19T02:56:19.972Z,101048.23
2018-06-19T02:58:49.748Z,101051.11
2018-06-19T03:01:21.286Z,101053.06
2018-06-19T03:03:51.024Z,101056.30
2018-06-19T03:06:21.341Z,101055.55
2018-06-19T03:11:40.473Z,101050.48
2018-06-19T03:14:09.890Z,101052.14
2018-06-19T03:16:41.786Z,101051.98
2018-06-19T03:19:12.829Z,101048.11
2018-06-19T03:21:43.535Z,101056.17
2018-06-19T03:24:12.939Z,101053.85
2018-06-19T03:26:42.177Z,101052.45
2018-06-19T03:29:11.158Z,101056.11
2018-06-19T03:31:40.527Z,101058.05
2018-06-19T03:34:10.147Z,101059.05
2018-06-19T03:36:39.285Z,101054.16
2018-06-19T03:39:10.761Z,101059.46
2018-06-19T03:41:40.029Z,101056.80
2018-06-19T03:44:09.629Z,101057.02
2018-06-19T03:46:40.661Z,101061.28
2018-06-19T03:49:12.339Z,101069.02
2018-06-19T03:51:41.964Z,101071.04
2018-06-19T03:54:11.536Z,101067.50
2018-06-19T03:56:40.880Z,101072.62
2018-06-19T03:59:11.019Z,101074.28
2018-06-19T04:01:40.341Z,101082.56
2018-06-19T04:04:12.423Z,101086.96
2018-06-19T04:06:41.385Z,101085.23
2018-06-19T04:09:10.470Z,101088.72
2018-06-19T04:11:40.664Z,101092.13
2018-06-19T04:14:09.889Z,101095.16
2018-06-19T04:16:42.898Z,101088.83
2018-06-19T04:19:12.541Z,101092.15
2018-06-19T04:21:41.514Z,101093.55
2018-06-19T04:24:13.515Z,101095.91
2018-06-19T04:26:42.837Z,101103.41
2018-06-19T04:29:12.499Z,101108.95
2018-06-19T04:31:42.249Z,101111.77
2018-06-19T04:34:13.959Z,101110.22
2018-06-19T04:36:43.708Z,101107.76
2018-06-19T04:39:12.811Z,101108.55
2018-06-19T04:41:41.646Z,101108.47
2018-06-19T04:44:15.818Z,101110.50
2018-06-19T04:46:45.759Z,101112.14
2018-06-19T04:49:16.321Z,101113.00
2018-06-19T04:51:45.787Z,101109.28
2018-06-19T04:54:14.847Z,101104.64
2018-06-19T04:56:45.442Z,101117.23
2018-06-19T04:59:15.483Z,101116.57
2018-06-19T05:01:45.128Z,101116.88
2018-06-19T05:04:14.149Z,101121.67
2018-06-19T05:06:43.626Z,101126.15
2018-06-19T05:09:12.895Z,101130.23
2018-06-19T05:11:42.093Z,101131.42
2018-06-19T05:14:11.154Z,101132.03
2018-06-19T05:16:40.802Z,101133.22
2018-06-19T05:19:10.379Z,101137.39
2018-06-19T05:21:40.149Z,101143.38
2018-06-19T05:24:09.542Z,101142.95
2018-06-19T05:26:38.488Z,101149.91
2018-06-19T05:29:07.610Z,101148.87
2018-06-19T05:31:36.400Z,101145.58
2018-06-19T05:34:05.658Z,101152.70
2018-06-19T05:36:34.811Z,101150.95
2018-06-19T05:39:03.924Z,101150.96
2018-06-19T05:41:36.093Z,101148.41
2018-06-19T05:44:05.157Z,101153.23
2018-06-19T05:46:33.948Z,101152.62
2018-06-19T05:49:02.743Z,101156.16
2018-06-19T05:51:31.667Z,101152.47
2018-06-19T05:54:00.765Z,101153.36
2018-06-19T05:56:29.447Z,101153.39
2018-06-19T05:59:14.348Z,101157.56
2018-06-19T06:01:43.341Z,101159.03
2018-06-19T06:04:12.283Z,101162.02
2018-06-19T06:06:41.048Z,101158.61
2018-06-19T06:09:14.182Z,101157.72
2018-06-19T06:11:43.026Z,101148.87
2018-06-19T06:14:11.799Z,101157.24
2018-06-19T06:16:40.746Z,101158.38
2018-06-19T06:19:09.421Z,101161.30
2018-06-19T06:21:38.415Z,101155.19
2018-06-19T06:24:07.230Z,101154.75
2018-06-19T06:26:36.496Z,101159.34
2018-06-19T06:29:05.386Z,101162.80
2018-06-19T06:34:21.877Z,101161.78
2018-06-19T06:36:50.671Z,101162.19
2018-06-19T06:39:19.476Z,101164.94
2018-06-19T06:41:48.306Z,101166.89
2018-06-19T06:44:17.049Z,101156.97
2018-06-19T06:46:45.761Z,101163.74
2018-06-19T06:49:14.529Z,101161.94
2018-06-19T06:51:43.284Z,101158.78
2018-06-19T06:54:12.112Z,101161.97
2018-06-19T06:56:40.928Z,101157.27
2018-06-19T06:59:10.373Z,101172.28
2018-06-19T07:01:39.500Z,101165.09
2018-06-19T07:04:08.363Z,101163.54
2018-06-19T07:06:37.170Z,101164.70
2018-06-19T07:09:05.961Z,101171.12
2018-06-19T07:11:34.923Z,101167.31
2018-06-19T07:14:04.263Z,101161.42
2018-06-19T07:16:33.134Z,101164.00
2018-06-19T07:19:01.895Z,101158.00
2018-06-19T07:21:30.832Z,101170.34
2018-06-19T07:23:59.559Z,101164.37
2018-06-19T07:26:28.155Z,101168.15
2018-06-19T07:28:56.915Z,101165.31
2018-06-19T07:31:25.652Z,101158.83
2018-06-19T07:33:59.951Z,101158.21
2018-06-19T07:36:28.607Z,101164.05
2018-06-19T07:39:00.804Z,101147.66
2018-06-19T07:41:29.474Z,101154.20
2018-06-19T07:43:58.400Z,101161.97
2018-06-19T07:46:27.062Z,101157.42
2018-06-19T07:48:56.139Z,101150.12
2018-06-19T07:51:25.017Z,101150.17
2018-06-19T07:53:53.785Z,101153.86
2018-06-19T07:56:25.250Z,101148.27
2018-06-19T07:58:53.955Z,101158.34
2018-06-19T08:01:22.936Z,101156.60
2018-06-19T08:03:51.675Z,101147.12
2018-06-19T08:06:20.373Z,101150.66
2018-06-19T08:08:49.097Z,101156.61
2018-06-19T08:14:08.430Z,101158.27
2018-06-19T08:16:37.135Z,101149.88
2018-06-19T08:19:06.010Z,101152.69
2018-06-19T08:21:34.738Z,101146.80
2018-06-19T08:24:03.501Z,101150.38
2018-06-19T08:26:32.236Z,101148.94
2018-06-19T08:29:04.120Z,101154.07
2018-06-19T08:31:32.877Z,101148.39
2018-06-19T08:34:01.714Z,101157.61
2018-06-19T08:36:30.703Z,101148.41
2018-06-19T08:39:01.464Z,101152.57
2018-06-19T08:41:30.154Z,101153.99
2018-06-19T08:43:59.240Z,101151.38
2018-06-19T08:46:36.272Z,101151.08
2018-06-19T08:49:05.028Z,101139.41
2018-06-19T08:51:35.467Z,101135.41
2018-06-19T08:54:02.563Z,101133.17
2018-06-19T08:56:31.317Z,101122.86
2018-06-19T08:59:00.070Z,101140.48
2018-06-19T09:01:28.899Z,101137.70
2018-06-19T09:03:58.485Z,101136.23
2018-06-19T09:06:27.274Z,101128.24
2018-06-19T09:08:56.029Z,101123.08
2018-06-19T09:11:25.066Z,101134.67
2018-06-19T09:13:53.907Z,101135.48
2018-06-19T09:16:22.846Z,101136.86
2018-06-19T09:18:51.706Z,101127.55
2018-06-19T09:21:20.418Z,101123.45
2018-06-19T09:23:49.214Z,101120.63
2018-06-19T09:26:17.952Z,101127.57
2018-06-19T09:28:46.778Z,101123.57
2018-06-19T09:31:15.616Z,101132.19
2018-06-19T09:33:44.523Z,101125.14
2018-06-19T09:38:51.815Z,101115.23
2018-06-19T09:41:20.542Z,101112.70
2018-06-19T09:43:49.285Z,101110.47
2018-06-19T09:46:18.008Z,101118.83
2018-06-19T09:48:46.746Z,101113.22
2018-06-19T09:51:15.518Z,101118.58
2018-06-19T09:53:44.419Z,101113.33
2018-06-19T09:56:13.107Z,101116.67
2018-06-19T09:58:42.040Z,101118.61
2018-06-19T10:01:10.829Z,101122.98
2018-06-19T10:03:39.674Z,101124.17
2018-06-19T10:06:08.504Z,101126.20
2018-06-19T10:08:37.323Z,101124.49
2018-06-19T10:11:06.086Z,101128.03
2018-06-19T10:13:34.825Z,101124.05
2018-06-19T10:16:03.742Z,101124.17
2018-06-19T10:18:32.717Z,101124.45
2018-06-19T10:21:01.560Z,101130.24
2018-06-19T10:23:30.281Z,101126.41
2018-06-19T10:25:59.826Z,101132.31
2018-06-19T10:28:30.807Z,101140.58
2018-06-19T10:31:15.368Z,101134.74
2018-06-19T10:33:44.171Z,101134.42
2018-06-19T10:36:12.919Z,101137.66
2018-06-19T10:38:41.677Z,101130.09
2018-06-19T10:41:10.366Z,101137.77
2018-06-19T10:43:41.621Z,101136.09
2018-06-19T10:46:10.607Z,101136.41
2018-06-19T10:48:39.416Z,101131.44
2018-06-19T10:51:08.266Z,101128.56
2018-06-19T10:53:37.000Z,101135.67
2018-06-19T10:56:05.731Z,101128.91
2018-06-19T10:58:34.673Z,101132.25
2018-06-19T11:01:03.424Z,101138.05
2018-06-19T11:03:32.282Z,101135.89
2018-06-19T11:06:03.386Z,101140.47
2018-06-19T11:08:32.139Z,101144.88
2018-06-19T11:11:03.038Z,101143.14
2018-06-19T11:13:31.962Z,101143.23
2018-06-19T11:16:03.304Z,101141.04
2018-06-19T11:18:32.123Z,101142.00
2018-06-19T11:21:01.090Z,101143.98
2018-06-19T11:23:29.867Z,101143.96
2018-06-19T11:25:58.601Z,101146.81
2018-06-19T11:28:27.297Z,101151.87
2018-06-19T11:30:56.313Z,101151.82
2018-06-19T11:33:25.028Z,101156.20
2018-06-19T11:35:53.876Z,101150.28
2018-06-19T11:38:22.923Z,101148.94
2018-06-19T11:40:51.898Z,101156.59
2018-06-19T11:43:20.608Z,101162.33
2018-06-19T11:45:49.425Z,101153.94
2018-06-19T11:48:18.472Z,101161.56
2018-06-19T11:50:47.240Z,101162.64
2018-06-19T11:53:16.013Z,101163.41
2018-06-19T11:55:44.837Z,101159.84
2018-06-19T11:58:13.615Z,101164.80
2018-06-19T12:00:42.368Z,101172.73
2018-06-19T12:03:11.100Z,101167.02
2018-06-19T12:05:39.862Z,101170.80
2018-06-19T12:08:16.946Z,101168.91
2018-06-19T12:10:45.752Z,101155.75
2018-06-19T12:13:14.465Z,101159.75
2018-06-19T12:15:43.298Z,101164.02
2018-06-19T12:18:12.019Z,101156.27
2018-06-19T12:20:40.789Z,101151.67
2018-06-19T12:23:09.562Z,101155.45
2018-06-19T12:25:38.311Z,101145.29
2018-06-19T12:28:07.744Z,101145.98
2018-06-19T12:30:36.519Z,101145.48
2018-06-19T12:33:05.254Z,101143.84
2018-06-19T12:35:34.034Z,101153.58
2018-06-19T12:38:02.806Z,101154.55
2018-06-19T12:40:31.704Z,101142.97
2018-06-19T12:43:00.396Z,101146.33
2018-06-19T12:45:29.280Z,101153.23
2018-06-19T12:47:57.946Z,101149.41
2018-06-19T12:50:35.708Z,101154.24
2018-06-19T12:53:32.075Z,101160.54
2018-06-19T12:56:12.667Z,101164.50
2018-06-19T12:58:43.760Z,101166.14
2018-06-19T13:01:12.383Z,101164.14
2018-06-19T13:04:18.411Z,101169.34
2018-06-19T13:06:48.222Z,101174.13
2018-06-19T13:09:16.936Z,101170.56
2018-06-19T13:11:45.644Z,101169.33
2018-06-19T13:14:35.793Z,101175.42
2018-06-19T13:17:41.877Z,101175.45
2018-06-19T13:20:43.361Z,101175.72
2018-06-19T13:23:12.107Z,101181.58
2018-06-19T13:25:44.595Z,101179.42
2018-06-19T13:28:13.292Z,101178.35
2018-06-19T13:31:28.451Z,101182.16
2018-06-19T13:33:57.187Z,101180.80
2018-06-19T13:36:25.920Z,101190.02
2018-06-19T13:38:54.914Z,101187.42
2018-06-19T13:41:54.841Z,101188.55
2018-06-19T13:44:48.598Z,101181.59
2018-06-19T13:47:17.714Z,101190.94
2018-06-19T13:49:49.148Z,101198.59
2018-06-19T13:52:18.257Z,101190.01
2018-06-19T13:58:11.835Z,101194.45
2018-06-19T14:00:41.793Z,101190.41
2018-06-19T14:03:10.966Z,101198.08
2018-06-19T14:05:42.159Z,101197.66
2018-06-19T14:08:11.136Z,101192.31
2018-06-19T14:10:43.222Z,101194.94
2018-06-19T14:13:12.139Z,101194.42
2018-06-19T14:15:42.898Z,101193.53
2018-06-19T14:18:17.071Z,101198.71
2018-06-19T14:20:49.753Z,101199.89
2018-06-19T14:23:18.744Z,101197.55
2018-06-19T14:25:47.885Z,101202.97
2018-06-19T14:28:16.801Z,101198.41
2018-06-19T14:30:45.352Z,101206.33
2018-06-19T14:33:14.221Z,101204.14
2018-06-19T14:35:42.825Z,101205.75
2018-06-19T14:38:11.599Z,101205.09
2018-06-19T14:40:40.358Z,101209.23
2018-06-19T14:43:09.053Z,101210.44
2018-06-19T14:45:37.797Z,101209.60
2018-06-19T14:48:06.537Z,101210.30
2018-06-19T14:50:35.283Z,101214.84
2018-06-19T14:53:03.989Z,101206.94
2018-06-19T14:55:32.749Z,101207.87
2018-06-19T14:58:01.582Z,101211.17
2018-06-19T15:00:30.330Z,101216.14
2018-06-19T15:02:59.068Z,101210.55
2018-06-19T15:05:27.795Z,101208.89
2018-06-19T15:07:56.490Z,101213.70
2018-06-19T15:10:25.228Z,101217.77
2018-06-19T15:12:53.876Z,101218.28
2018-06-19T15:15:22.600Z,101216.39
2018-06-19T15:17:54.158Z,101217.64
2018-06-19T15:20:22.866Z,101214.50
2018-06-19T15:22:51.587Z,101214.95
2018-06-19T15:25:20.349Z,101212.52
2018-06-19T15:27:49.014Z,101220.34
2018-06-19T15:30:18.022Z,101210.91
2018-06-19T15:32:46.727Z,101215.33
2018-06-19T15:35:15.377Z,101214.26
2018-06-19T15:37:47.515Z,101218.84
2018-06-19T15:40:16.149Z,101220.42
2018-06-19T15:42:44.892Z,101214.59
2018-06-19T15:45:13.574Z,101212.45
2018-06-19T15:47:42.312Z,101218.22
2018-06-19T15:50:11.145Z,101211.27
2018-06-19T15:52:39.864Z,101215.16
2018-06-19T15:55:08.577Z,101213.45
2018-06-19T15:57:37.290Z,101213.13
2018-06-19T16:00:06.031Z,101211.71
2018-06-19T16:02:35.281Z,101221.19
2018-06-19T16:05:03.933Z,101217.21
2018-06-19T16:07:32.631Z,101216.52
2018-06-19T16:10:01.332Z,101224.63
2018-06-19T16:12:30.025Z,101221.78
2018-06-19T16:14:58.682Z,101218.96
2018-06-19T16:17:27.416Z,101216.16
2018-06-19T16:19:56.155Z,101219.05
2018-06-19T16:22:24.881Z,101221.81
2018-06-19T16:24:53.963Z,101217.80
2018-06-19T16:27:23.011Z,101221.98
2018-06-19T16:29:51.886Z,101225.13
2018-06-19T16:32:20.616Z,101226.16
2018-06-19T16:34:49.270Z,101224.11
2018-06-19T16:37:18.088Z,101231.55
2018-06-19T16:39:46.771Z,101234.39
2018-06-19T16:42:15.545Z,101233.66
2018-06-19T16:44:44.174Z,101230.25
2018-06-19T16:47:16.632Z,101231.25
2018-06-19T16:49:45.245Z,101224.47
2018-06-19T16:52:13.935Z,101231.68
2018-06-19T16:54:42.638Z,101233.47
2018-06-19T16:57:11.439Z,101229.19
2018-06-19T16:59:40.124Z,101226.09
2018-06-19T17:02:09.128Z,101232.73
2018-06-19T17:04:37.827Z,101223.95
2018-06-19T17:07:07.045Z,101231.51
2018-06-19T17:09:38.803Z,101218.02
2018-06-19T17:12:07.797Z,101225.14
2018-06-19T17:14:36.973Z,101230.99
2018-06-19T17:17:06.154Z,101230.75
2018-06-19T17:19:37.577Z,101231.30
2018-06-19T17:22:04.488Z,101230.23
2018-06-19T17:24:37.167Z,101231.88
2018-06-19T17:27:06.041Z,101228.16
2018-06-19T17:29:34.982Z,101223.39
2018-06-19T17:32:04.196Z,101229.04
2018-06-19T17:34:33.814Z,101219.48
2018-06-19T17:37:02.607Z,101231.75
2018-06-19T17:39:31.313Z,101229.45
2018-06-19T17:42:00.218Z,101226.97
2018-06-19T17:44:29.505Z,101225.45
2018-06-19T17:46:58.498Z,101229.13
2018-06-19T17:49:29.484Z,101233.78
2018-06-19T17:52:01.067Z,101232.48
2018-06-19T17:57:21.005Z,101239.05
2018-06-19T17:59:51.767Z,101235.41
2018-06-19T18:02:21.272Z,101245.33
2018-06-19T18:04:50.184Z,101249.63
2018-06-19T18:07:19.605Z,101247.82
2018-06-19T18:09:52.690Z,101242.14
2018-06-19T18:12:23.083Z,101244.06
2018-06-19T18:15:00.163Z,101237.84
2018-06-19T18:17:29.583Z,101236.56
2018-06-19T18:19:59.605Z,101239.62
2018-06-19T18:22:30.965Z,101234.78
2018-06-19T18:25:02.900Z,101246.21
2018-06-19T18:27:31.553Z,101241.31
2018-06-19T18:30:10.203Z,101240.20
2018-06-19T18:32:38.911Z,101245.98
2018-06-19T18:35:08.011Z,101240.68
2018-06-19T18:37:36.648Z,101241.28
2018-06-19T18:40:05.417Z,101240.73
2018-06-19T18:42:34.399Z,101239.41
2018-06-19T18:45:03.302Z,101238.69
2018-06-19T18:47:32.142Z,101242.65
2018-06-19T18:50:01.058Z,101237.17
2018-06-19T18:52:30.220Z,101238.39
2018-06-19T18:54:59.440Z,101238.59
2018-06-19T18:57:28.493Z,101234.75
2018-06-19T18:59:58.679Z,101234.53
2018-06-19T19:02:27.376Z,101243.36
2018-06-19T19:04:56.159Z,101242.28
2018-06-19T19:07:25.134Z,101237.04
2018-06-19T19:09:54.890Z,101239.84
2018-06-19T19:12:23.711Z,101244.73
2018-06-19T19:14:53.136Z,101242.82
2018-06-19T19:17:24.838Z,101245.23
2018-06-19T19:19:53.970Z,101252.12
2018-06-19T19:22:24.669Z,101250.00
2018-06-19T19:24:53.415Z,101257.59
2018-06-19T19:27:25.226Z,101260.69
2018-06-19T19:29:54.734Z,101254.77
2018-06-19T19:32:23.703Z,101260.20
2018-06-19T19:34:54.385Z,101263.34
2018-06-19T19:37:25.705Z,101274.41
2018-06-19T19:39:55.844Z,101270.91
2018-06-19T19:42:24.494Z,101276.07
2018-06-19T19:44:55.089Z,101279.92
2018-06-19T19:47:26.507Z,101275.72
2018-06-19T19:49:57.502Z,101285.03
2018-06-19T19:52:26.152Z,101287.28
2018-06-19T19:54:55.026Z,101288.44
2018-06-19T19:57:26.786Z,101302.09
2018-06-19T19:59:55.825Z,101294.45
2018-06-19T20:02:25.046Z,101301.36
2018-06-19T20:04:54.248Z,101304.32
2018-06-19T20:07:23.259Z,101300.27
2018-06-19T20:09:52.477Z,101307.73
2018-06-19T20:12:21.351Z,101308.17
2018-06-19T20:14:50.033Z,101308.98
2018-06-19T20:17:18.801Z,101312.15
2018-06-19T20:19:47.475Z,101318.47
2018-06-19T20:22:16.252Z,101314.59
2018-06-19T20:24:45.040Z,101314.33
2018-06-19T20:27:20.790Z,101313.52
2018-06-19T20:29:53.033Z,101310.91
2018-06-19T20:32:24.517Z,101312.77
2018-06-19T20:34:53.221Z,101316.27
2018-06-19T20:37:22.654Z,101314.92
2018-06-19T20:39:51.871Z,101321.87
2018-06-19T20:42:20.693Z,101320.92
2018-06-19T20:44:52.873Z,101316.36
2018-06-19T20:47:22.208Z,101318.81
2018-06-19T20:49:51.002Z,101320.44
2018-06-19T20:52:20.132Z,101325.09
2018-06-19T20:54:49.252Z,101328.75
2018-06-19T20:57:18.141Z,101327.31
2018-06-19T20:59:47.109Z,101329.78
2018-06-19T21:02:16.091Z,101330.83
2018-06-19T21:04:45.194Z,101334.14
2018-06-19T21:07:14.217Z,101335.19
2018-06-19T21:09:43.373Z,101335.44
2018-06-19T21:12:19.534Z,101336.91
2018-06-19T21:14:55.013Z,101340.76
2018-06-19T21:17:30.107Z,101331.11
2018-06-19T21:20:01.933Z,101329.63
2018-06-19T21:22:31.699Z,101339.30
2018-06-19T21:25:04.619Z,101341.94
2018-06-19T21:27:33.807Z,101340.11
2018-06-19T21:30:02.712Z,101344.07
2018-06-19T21:32:31.411Z,101344.36
2018-06-19T21:35:01.139Z,101348.44
2018-06-19T21:37:30.339Z,101347.70
2018-06-19T21:40:03.917Z,101348.17
2018-06-19T21:42:35.738Z,101351.45
2018-06-19T21:45:06.440Z,101353.33
2018-06-19T21:47:35.117Z,101353.30
2018-06-19T21:50:04.669Z,101349.67
2018-06-19T21:52:33.679Z,101356.26
2018-06-19T21:55:05.285Z,101357.09
2018-06-19T21:57:38.906Z,101363.14
2018-06-19T22:00:07.917Z,101359.67
2018-06-19T22:02:38.045Z,101358.82
2018-06-19T22:05:07.083Z,101354.55
2018-06-19T22:07:36.068Z,101351.39
2018-06-19T22:10:05.242Z,101360.41
2018-06-19T22:12:34.366Z,101369.13
2018-06-19T22:15:03.489Z,101370.25
2018-06-19T22:17:32.741Z,101366.40
2018-06-19T22:20:03.224Z,101366.53
2018-06-19T22:22:32.610Z,101366.55
2018-06-19T22:25:03.647Z,101368.31
2018-06-19T22:27:33.936Z,101372.59
2018-06-19T22:30:03.136Z,101371.55
2018-06-19T22:32:32.484Z,101374.03
2018-06-19T22:35:02.053Z,101371.70
2018-06-19T22:37:35.254Z,101368.89
2018-06-19T22:40:04.730Z,101369.81
2018-06-19T22:42:34.380Z,101371.75
2018-06-19T22:45:03.309Z,101372.33
2018-06-19T22:47:32.400Z,101370.72
2018-06-19T22:50:01.623Z,101371.64
2018-06-19T22:52:31.407Z,101372.48
2018-06-19T22:55:00.547Z,101370.97
2018-06-19T22:57:29.279Z,101373.83
2018-06-19T22:59:58.070Z,101371.56
2018-06-19T23:02:26.845Z,101376.02
2018-06-19T23:04:55.716Z,101380.81
2018-06-19T23:07:24.444Z,101374.54
2018-06-19T23:09:54.412Z,101377.45
2018-06-19T23:12:23.055Z,101379.95
2018-06-19T23:14:52.880Z,101381.89
2018-06-19T23:17:21.474Z,101390.47
2018-06-19T23:19:50.175Z,101387.59
2018-06-19T23:22:19.171Z,101383.39
2018-06-19T23:24:48.072Z,101385.98
2018-06-19T23:27:16.907Z,101385.92
2018-06-19T23:29:45.692Z,101387.12
2018-06-19T23:32:14.725Z,101390.53
2018-06-19T23:34:43.648Z,101386.58
2018-06-19T23:37:13.073Z,101393.92
2018-06-19T23:39:45.612Z,101390.38
2018-06-19T23:42:14.573Z,101396.39
2018-06-19T23:44:43.793Z,101392.51
2018-06-19T23:47:14.150Z,101392.19
2018-06-19T23:49:42.812Z,101394.92
2018-06-19T23:52:11.779Z,101392.30
2018-06-19T23:54:40.306Z,101397.17
2018-06-19T23:57:09.304Z,101393.64
2018-06-19T23:59:38.103Z,101389.68
